createdAt,value
2018-01-11T00:00:35.397Z,31.75
2018-01-11T00:03:02.827Z,31.83
2018-01-11T00:05:31.038Z,30.73
2018-01-11T00:07:58.518Z,32.30
2018-01-11T00:10:25.961Z,31.42
2018-01-11T00:12:53.437Z,32.50
2018-01-11T00:15:20.877Z,31.80
2018-01-11T00:17:48.334Z,31.40
2018-01-11T00:20:15.775Z,31.93
2018-01-11T00:22:43.201Z,31.33
2018-01-11T00:25:11.426Z,31.08
2018-01-11T00:27:38.865Z,32.08
2018-01-11T00:30:06.342Z,32.75
2018-01-11T00:32:33.786Z,32.33
2018-01-11T00:35:01.254Z,32.38
2018-01-11T00:37:28.704Z,31.00
2018-01-11T00:39:56.161Z,32.22
2018-01-11T00:42:23.585Z,30.65
2018-01-11T00:44:51.027Z,31.55
2018-01-11T00:47:19.242Z,32.53
2018-01-11T00:49:46.674Z,30.40
2018-01-11T00:52:14.163Z,31.50
2018-01-11T00:54:41.594Z,30.35
2018-01-11T00:57:09.026Z,31.30
2018-01-11T00:59:36.529Z,29.98
2018-01-11T01:02:03.987Z,29.73
2018-01-11T01:04:31.418Z,31.20
2018-01-11T01:06:58.901Z,29.48
2018-01-11T01:09:26.346Z,30.98
2018-01-11T01:11:53.816Z,29.15
2018-01-11T01:14:21.254Z,28.80
2018-01-11T01:16:48.685Z,31.42
2018-01-11T01:19:16.178Z,28.83
2018-01-11T01:21:43.609Z,30.35
2018-01-11T01:24:11.050Z,28.23
2018-01-11T01:26:38.489Z,29.20
2018-01-11T01:29:06.717Z,29.35
2018-01-11T01:31:34.182Z,30.00
2018-01-11T01:34:01.623Z,29.52
2018-01-11T01:36:29.050Z,28.23
2018-01-11T01:38:56.602Z,28.30
2018-01-11T01:41:24.030Z,29.37
2018-01-11T01:43:51.470Z,29.80
2018-01-11T01:46:18.909Z,30.35
2018-01-11T01:48:46.344Z,29.48
2018-01-11T01:51:13.822Z,28.23
2018-01-11T01:53:41.281Z,26.92
2018-01-11T01:56:08.825Z,28.77
2018-01-11T01:58:36.245Z,28.30
2018-01-11T02:01:03.674Z,28.27
2018-01-11T02:03:31.121Z,29.05
2018-01-11T02:05:59.329Z,28.20
2018-01-11T02:08:26.797Z,28.23
2018-01-11T02:10:54.293Z,27.60
2018-01-11T02:13:21.747Z,29.17
2018-01-11T02:15:49.177Z,29.27
2018-01-11T02:18:16.622Z,27.98
2018-01-11T02:20:44.919Z,28.17
2018-01-11T02:23:12.392Z,30.40
2018-01-11T02:25:39.846Z,29.05
2018-01-11T02:28:07.289Z,29.40
2018-01-11T02:30:34.775Z,28.80
2018-01-11T02:33:02.240Z,28.17
2018-01-11T02:35:29.782Z,27.90
2018-01-11T02:37:57.218Z,27.80
2018-01-11T02:40:24.694Z,29.20
2018-01-11T02:42:52.137Z,30.25
2018-01-11T02:45:19.652Z,27.65
2018-01-11T02:47:47.045Z,29.83
2018-01-11T02:50:14.526Z,29.20
2018-01-11T02:52:41.954Z,31.97
2018-01-11T02:55:09.422Z,30.10
2018-01-11T02:57:36.854Z,29.58
2018-01-11T03:00:04.307Z,28.65
2018-01-11T03:02:31.798Z,29.10
2018-01-11T03:04:59.246Z,29.80
2018-01-11T03:07:26.686Z,29.85
2018-01-11T03:09:54.157Z,30.02
2018-01-11T03:12:21.611Z,29.92
2018-01-11T03:14:49.074Z,30.50
2018-01-11T03:17:16.618Z,30.80
2018-01-11T03:19:44.039Z,29.80
2018-01-11T03:22:12.234Z,30.92
2018-01-11T03:24:39.678Z,31.00
2018-01-11T03:27:07.899Z,30.55
2018-01-11T03:29:35.335Z,29.98
2018-01-11T03:32:02.773Z,30.50
2018-01-11T03:34:30.278Z,29.20
2018-01-11T03:36:57.708Z,29.12
2018-01-11T03:39:25.182Z,30.60
2018-01-11T03:41:52.630Z,30.10
2018-01-11T03:44:20.061Z,30.60
2018-01-11T03:46:47.651Z,31.40
2018-01-11T03:49:15.085Z,29.65
2018-01-11T03:51:42.557Z,30.67
2018-01-11T03:54:09.993Z,31.50
2018-01-11T03:56:37.476Z,30.67
2018-01-11T03:59:04.930Z,31.20
2018-01-11T04:01:32.362Z,32.58
2018-01-11T04:03:59.805Z,29.35
2018-01-11T04:06:27.302Z,30.15
2018-01-11T04:08:54.817Z,31.00
2018-01-11T04:11:22.253Z,30.37
2018-01-11T04:13:50.453Z,30.90
2018-01-11T04:16:17.889Z,29.33
2018-01-11T04:18:46.082Z,32.07
2018-01-11T04:21:13.586Z,29.95
2018-01-11T04:23:41.018Z,31.62
2018-01-11T04:26:08.498Z,30.75
2018-01-11T04:28:35.933Z,30.98
2018-01-11T04:31:03.363Z,31.00
2018-01-11T04:33:30.797Z,30.42
2018-01-11T04:35:58.234Z,30.20
2018-01-11T04:38:25.792Z,29.52
2018-01-11T04:40:53.210Z,30.40
2018-01-11T04:43:20.675Z,29.75
2018-01-11T04:45:48.134Z,30.85
2018-01-11T04:48:15.567Z,30.05
2018-01-11T04:50:43.042Z,30.23
2018-01-11T04:53:10.470Z,30.03
2018-01-11T04:55:37.910Z,29.60
2018-01-11T04:58:06.142Z,30.95
2018-01-11T05:00:39.397Z,30.42
2018-01-11T05:03:06.834Z,30.02
2018-01-11T05:05:35.157Z,29.58
2018-01-11T05:08:02.589Z,29.98
2018-01-11T05:10:30.030Z,30.60
2018-01-11T05:12:57.465Z,29.12
2018-01-11T05:15:25.674Z,32.83
2018-01-11T05:17:53.173Z,29.33
2018-01-11T05:20:20.727Z,28.85
2018-01-11T05:22:48.266Z,32.33
2018-01-11T05:25:15.704Z,28.25
2018-01-11T05:27:43.133Z,29.90
2018-01-11T05:30:11.349Z,29.98
2018-01-11T05:32:38.810Z,29.87
2018-01-11T05:35:06.276Z,29.30
2018-01-11T05:37:33.709Z,29.60
2018-01-11T05:40:01.267Z,30.27
2018-01-11T05:42:28.749Z,28.52
2018-01-11T05:44:56.200Z,29.15
2018-01-11T05:47:23.641Z,29.08
2018-01-11T05:49:51.206Z,28.02
2018-01-11T05:52:18.698Z,28.83
2018-01-11T05:54:46.126Z,28.62
2018-01-11T05:57:13.653Z,27.20
2018-01-11T05:59:41.082Z,27.70
2018-01-11T06:02:09.300Z,29.45
2018-01-11T06:04:36.742Z,29.92
2018-01-11T06:07:04.265Z,28.95
2018-01-11T06:09:31.809Z,33.88
2018-01-11T06:11:59.364Z,30.08
2018-01-11T06:14:26.884Z,29.02
2018-01-11T06:16:54.331Z,29.95
2018-01-11T06:19:21.810Z,30.92
2018-01-11T06:21:49.265Z,30.67
2018-01-11T06:24:16.726Z,31.35
2018-01-11T06:26:44.149Z,29.83
2018-01-11T06:29:11.637Z,28.60
2018-01-11T06:31:39.078Z,29.98
2018-01-11T06:34:06.546Z,30.42
2018-01-11T06:36:33.989Z,30.40
2018-01-11T06:39:01.425Z,30.10
2018-01-11T06:41:28.855Z,30.42
2018-01-11T06:43:57.070Z,30.75
2018-01-11T06:46:24.499Z,31.90
2018-01-11T06:48:52.716Z,33.10
2018-01-11T06:51:20.149Z,29.77
2018-01-11T06:53:47.606Z,31.10
2018-01-11T06:56:15.057Z,30.20
2018-01-11T06:58:42.565Z,30.67
2018-01-11T07:01:10.110Z,30.60
2018-01-11T07:03:37.634Z,30.55
2018-01-11T07:06:05.073Z,29.80
2018-01-11T07:08:33.330Z,29.85
2018-01-11T07:11:00.754Z,31.12
2018-01-11T07:13:28.192Z,31.30
2018-01-11T07:15:55.643Z,30.85
2018-01-11T07:18:23.113Z,30.90
2018-01-11T07:20:50.580Z,29.02
2018-01-11T07:23:18.058Z,31.33
2018-01-11T07:25:45.594Z,30.85
2018-01-11T07:28:13.014Z,31.75
2018-01-11T07:30:40.512Z,30.40
2018-01-11T07:33:07.951Z,28.73
2018-01-11T07:35:35.418Z,29.27
2018-01-11T07:38:02.862Z,30.02
2018-01-11T07:40:30.296Z,41.10
2018-01-11T07:42:57.727Z,33.25
2018-01-11T07:45:26.027Z,29.40
2018-01-11T07:47:53.468Z,32.95
2018-01-11T07:50:21.657Z,30.05
2018-01-11T07:52:49.145Z,30.98
2018-01-11T07:55:16.580Z,29.63
2018-01-11T07:57:44.058Z,29.40
2018-01-11T08:00:11.494Z,29.92
2018-01-11T08:02:38.937Z,30.95
2018-01-11T08:05:06.377Z,29.40
2018-01-11T08:07:34.603Z,30.20
2018-01-11T08:10:02.066Z,28.75
2018-01-11T08:12:29.702Z,29.85
2018-01-11T08:14:57.277Z,30.60
2018-01-11T08:17:24.829Z,29.00
2018-01-11T08:19:52.289Z,28.33
2018-01-11T08:22:19.746Z,30.10
2018-01-11T08:24:47.181Z,37.75
2018-01-11T08:27:14.651Z,29.12
2018-01-11T08:29:42.094Z,28.75
2018-01-11T08:32:09.538Z,29.90
2018-01-11T08:34:37.126Z,29.55
2018-01-11T08:37:05.082Z,29.63
2018-01-11T08:39:32.643Z,31.30
2018-01-11T08:42:00.065Z,36.70
2018-01-11T08:44:28.270Z,32.40
2018-01-11T08:46:55.755Z,31.80
2018-01-11T08:49:23.202Z,31.17
2018-01-11T08:51:50.658Z,30.25
2018-01-11T08:54:18.103Z,32.13
2018-01-11T08:56:45.566Z,30.95
2018-01-11T08:59:13.027Z,30.30
2018-01-11T09:01:40.492Z,31.48
2018-01-11T09:04:07.969Z,31.45
2018-01-11T09:06:35.511Z,29.75
2018-01-11T09:09:02.985Z,29.85
2018-01-11T09:11:30.462Z,30.37
2018-01-11T09:13:58.692Z,29.80
2018-01-11T09:16:26.130Z,29.93
2018-01-11T09:18:53.618Z,30.60
2018-01-11T09:21:21.842Z,29.90
2018-01-11T09:23:49.253Z,31.83
2018-01-11T09:26:16.696Z,31.45
2018-01-11T09:28:44.928Z,31.17
2018-01-11T09:31:12.378Z,33.42
2018-01-11T09:33:39.913Z,31.25
2018-01-11T09:36:07.359Z,31.25
2018-01-11T09:38:34.792Z,31.20
2018-01-11T09:41:03.026Z,30.00
2018-01-11T09:43:30.630Z,30.70
2018-01-11T09:45:58.861Z,28.83
2018-01-11T09:48:26.344Z,30.12
2018-01-11T09:50:53.768Z,29.85
2018-01-11T09:53:21.210Z,29.60
2018-01-11T09:55:48.664Z,30.00
2018-01-11T09:58:16.094Z,33.07
2018-01-11T10:00:43.602Z,29.90
2018-01-11T10:03:11.038Z,29.73
2018-01-11T10:05:38.473Z,29.97
2018-01-11T10:08:05.940Z,30.67
2018-01-11T10:10:33.500Z,30.75
2018-01-11T10:13:00.918Z,31.20
2018-01-11T10:15:29.250Z,34.60
2018-01-11T10:17:56.677Z,33.22
2018-01-11T10:20:24.110Z,37.80
2018-01-11T10:22:52.314Z,31.58
2018-01-11T10:25:19.767Z,30.70
2018-01-11T10:27:47.262Z,31.45
2018-01-11T10:30:14.711Z,30.12
2018-01-11T10:32:42.145Z,30.62
2018-01-11T10:35:09.630Z,32.50
2018-01-11T10:37:37.057Z,31.45
2018-01-11T10:40:04.533Z,32.58
2018-01-11T10:42:31.990Z,29.92
2018-01-11T10:44:59.530Z,30.60
2018-01-11T10:47:26.972Z,30.58
2018-01-11T10:49:54.463Z,30.60
2018-01-11T10:52:22.129Z,31.60
2018-01-11T10:54:49.687Z,30.12
2018-01-11T10:57:17.274Z,27.87
2018-01-11T10:59:44.677Z,26.90
2018-01-11T11:02:17.774Z,24.55
2018-01-11T11:04:45.458Z,24.97
2018-01-11T11:07:13.012Z,24.73
2018-01-11T11:09:40.474Z,24.65
2018-01-11T11:12:07.909Z,25.10
2018-01-11T11:14:35.350Z,24.37
2018-01-11T11:17:02.908Z,24.80
2018-01-11T11:19:30.334Z,25.08
2018-01-11T11:21:58.568Z,25.70
2018-01-11T11:24:26.080Z,24.42
2018-01-11T11:26:53.521Z,23.33
2018-01-11T11:29:21.744Z,23.87
2018-01-11T11:31:49.190Z,24.17
2018-01-11T11:34:16.669Z,23.85
2018-01-11T11:36:44.138Z,23.42
2018-01-11T11:39:11.586Z,21.85
2018-01-11T11:41:39.043Z,22.00
2018-01-11T11:44:06.479Z,23.27
2018-01-11T11:46:33.954Z,22.20
2018-01-11T11:49:01.386Z,22.50
2018-01-11T11:51:28.939Z,20.70
2018-01-11T11:53:56.358Z,20.63
2018-01-11T11:56:25.088Z,22.00
2018-01-11T11:58:52.570Z,21.70
2018-01-11T12:01:20.090Z,20.00
2018-01-11T12:03:47.552Z,22.45
2018-01-11T12:06:14.969Z,22.73
2018-01-11T12:08:43.176Z,20.35
2018-01-11T12:11:10.601Z,20.55
2018-01-11T12:13:38.846Z,20.67
2018-01-11T12:16:07.073Z,21.90
2018-01-11T12:18:34.510Z,21.58
2018-01-11T12:21:01.982Z,23.65
2018-01-11T12:23:29.578Z,24.00
2018-01-11T12:25:57.044Z,23.87
2018-01-11T12:28:24.520Z,24.45
2018-01-11T12:30:51.964Z,23.48
2018-01-11T12:33:19.485Z,25.48
2018-01-11T12:35:46.899Z,23.42
2018-01-11T12:38:15.156Z,23.00
2018-01-11T12:40:42.706Z,24.33
2018-01-11T12:43:10.140Z,24.20
2018-01-11T12:45:37.570Z,22.33
2018-01-11T12:48:05.019Z,23.52
2018-01-11T12:50:32.587Z,22.65
2018-01-11T12:53:00.170Z,22.20
2018-01-11T12:55:27.634Z,22.45
2018-01-11T12:57:55.062Z,25.23
2018-01-11T13:00:22.504Z,21.98
2018-01-11T13:02:49.925Z,23.25
2018-01-11T13:05:17.362Z,22.90
2018-01-11T13:07:44.794Z,22.40
2018-01-11T13:10:12.244Z,21.83
2018-01-11T13:12:39.691Z,23.58
2018-01-11T13:15:07.144Z,23.48
2018-01-11T13:17:34.643Z,22.40
2018-01-11T13:20:02.090Z,23.33
2018-01-11T13:22:29.553Z,24.95
2018-01-11T13:24:56.999Z,24.67
2018-01-11T13:27:24.426Z,24.92
2018-01-11T13:29:51.878Z,82.07
2018-01-11T13:32:19.315Z,62.88
2018-01-11T13:37:21.436Z,56.92
2018-01-11T13:39:48.890Z,76.63
2018-01-11T13:42:16.322Z,31.12
2018-01-11T13:44:43.821Z,26.58
2018-01-11T13:47:11.278Z,28.15
2018-01-11T13:49:38.705Z,27.00
2018-01-11T13:52:06.168Z,26.23
2018-01-11T13:54:33.650Z,28.15
2018-01-11T13:57:01.082Z,27.27
2018-01-11T13:59:28.563Z,28.75
2018-01-11T14:01:56.030Z,28.20
2018-01-11T14:04:23.470Z,27.83
2018-01-11T14:06:50.938Z,29.33
2018-01-11T14:09:18.366Z,28.48
2018-01-11T14:11:45.872Z,30.55
2018-01-11T14:14:13.685Z,31.50
2018-01-11T14:16:41.166Z,30.40
2018-01-11T14:19:08.630Z,29.30
2018-01-11T14:21:36.078Z,30.98
2018-01-11T14:24:03.534Z,30.92
2018-01-11T14:26:31.082Z,29.20
2018-01-11T14:28:58.535Z,29.98
2018-01-11T14:31:25.961Z,30.57
2018-01-11T14:33:53.398Z,29.95
2018-01-11T14:36:20.926Z,29.58
2018-01-11T14:38:48.379Z,30.65
2018-01-11T14:41:15.821Z,29.05
2018-01-11T14:43:43.265Z,30.10
2018-01-11T14:46:10.709Z,30.23
2018-01-11T14:48:38.181Z,28.73
2018-01-11T14:51:05.639Z,30.70
2018-01-11T14:53:33.090Z,30.33
2018-01-11T14:56:00.658Z,30.17
2018-01-11T14:58:28.136Z,30.00
2018-01-11T15:00:55.573Z,31.42
2018-01-11T15:03:23.069Z,31.55
2018-01-11T15:05:50.598Z,32.07
2018-01-11T15:08:18.053Z,31.00
2018-01-11T15:10:45.465Z,32.30
2018-01-11T15:13:12.917Z,32.13
2018-01-11T15:15:40.398Z,32.20
2018-01-11T15:18:07.846Z,33.47
2018-01-11T15:20:35.285Z,34.90
2018-01-11T15:23:04.442Z,32.92
2018-01-11T15:25:31.901Z,33.70
2018-01-11T15:27:59.363Z,34.33
2018-01-11T15:30:26.907Z,34.03
2018-01-11T15:32:54.370Z,32.95
2018-01-11T15:35:21.806Z,32.90
2018-01-11T15:37:49.266Z,31.35
2018-01-11T15:40:16.803Z,30.33
2018-01-11T15:42:44.407Z,31.08
2018-01-11T15:45:11.842Z,29.40
2018-01-11T15:47:39.315Z,29.17
2018-01-11T15:50:06.834Z,28.73
2018-01-11T15:52:34.265Z,30.07
2018-01-11T15:55:01.869Z,30.27
2018-01-11T15:57:29.407Z,29.17
2018-01-11T15:59:56.877Z,29.00
2018-01-11T16:02:24.315Z,30.23
2018-01-11T16:04:51.802Z,29.85
2018-01-11T16:07:19.334Z,30.62
2018-01-11T16:09:46.847Z,30.48
2018-01-11T16:12:15.054Z,30.75
2018-01-11T16:14:42.624Z,30.92
2018-01-11T16:17:10.046Z,32.20
2018-01-11T16:19:37.537Z,32.22
2018-01-11T16:22:04.982Z,32.97
2018-01-11T16:24:32.575Z,30.75
2018-01-11T16:27:00.102Z,31.73
2018-01-11T16:29:27.538Z,29.77
2018-01-11T16:31:55.756Z,30.95
2018-01-11T16:34:23.191Z,28.97
2018-01-11T16:36:50.712Z,29.45
2018-01-11T16:39:18.109Z,29.90
2018-01-11T16:41:45.582Z,28.50
2018-01-11T16:44:13.038Z,29.35
2018-01-11T16:46:40.482Z,27.27
2018-01-11T16:49:07.905Z,28.25
2018-01-11T16:51:36.141Z,29.50
2018-01-11T16:54:03.577Z,27.30
2018-01-11T16:56:31.021Z,29.15
2018-01-11T16:58:58.463Z,31.30
2018-01-11T17:01:25.950Z,31.10
2018-01-11T17:03:53.441Z,28.67
2018-01-11T17:06:20.986Z,30.80
2018-01-11T17:08:48.422Z,29.20
2018-01-11T17:11:15.879Z,28.55
2018-01-11T17:13:43.422Z,29.33
2018-01-11T17:16:10.910Z,28.92
2018-01-11T17:18:38.434Z,30.08
2018-01-11T17:21:05.907Z,29.37
2018-01-11T17:23:33.448Z,28.15
2018-01-11T17:26:00.870Z,28.20
2018-01-11T17:28:29.281Z,26.65
2018-01-11T17:30:56.705Z,25.98
2018-01-11T17:33:24.991Z,27.23
2018-01-11T17:35:52.438Z,29.42
2018-01-11T17:38:20.661Z,31.23
2018-01-11T17:40:48.126Z,26.98
2018-01-11T17:43:15.575Z,28.27
2018-01-11T17:45:43.025Z,27.37
2018-01-11T17:48:10.500Z,25.88
2018-01-11T17:50:38.131Z,26.40
2018-01-11T17:53:05.606Z,26.42
2018-01-11T17:55:33.139Z,25.73
2018-01-11T17:58:01.386Z,25.12
2018-01-11T18:00:29.597Z,24.92
2018-01-11T18:02:57.904Z,25.52
2018-01-11T18:05:25.356Z,24.73
2018-01-11T18:07:52.835Z,25.50
2018-01-11T18:10:21.055Z,24.20
2018-01-11T18:12:48.479Z,24.08
2018-01-11T18:15:16.721Z,23.60
2018-01-11T18:17:44.846Z,23.90
2018-01-11T18:20:12.346Z,22.80
2018-01-11T18:22:39.878Z,21.08
2018-01-11T18:25:07.459Z,21.55
2018-01-11T18:27:35.027Z,20.85
2018-01-11T18:30:02.854Z,21.85
2018-01-11T18:32:30.370Z,21.40
2018-01-11T18:34:58.590Z,19.60
2018-01-11T18:37:26.022Z,19.95
2018-01-11T18:39:53.462Z,20.70
2018-01-11T18:42:20.894Z,18.12
2018-01-11T18:44:48.328Z,20.77
2018-01-11T18:47:15.980Z,20.15
2018-01-11T18:49:43.410Z,19.33
2018-01-11T18:52:10.842Z,19.42
2018-01-11T18:54:39.058Z,19.37
2018-01-11T18:57:06.540Z,18.95
2018-01-11T18:59:33.973Z,18.17
2018-01-11T19:02:01.407Z,18.30
2018-01-11T19:04:28.837Z,18.67
2018-01-11T19:06:57.044Z,19.65
2018-01-11T19:09:24.478Z,18.95
2018-01-11T19:11:52.694Z,18.35
2018-01-11T19:14:20.158Z,19.48
2018-01-11T19:16:47.625Z,19.55
2018-01-11T19:19:15.076Z,19.60
2018-01-11T19:21:42.611Z,19.30
2018-01-11T19:24:10.825Z,18.40
2018-01-11T19:26:38.256Z,18.90
2018-01-11T19:29:05.799Z,20.00
2018-01-11T19:31:33.274Z,19.45
2018-01-11T19:34:00.711Z,20.10
2018-01-11T19:36:28.149Z,20.77
2018-01-11T19:38:55.575Z,19.83
2018-01-11T19:41:23.021Z,20.52
2018-01-11T19:43:50.665Z,21.50
2018-01-11T19:46:18.210Z,20.70
2018-01-11T19:48:45.654Z,21.52
2018-01-11T19:51:13.191Z,20.80
2018-01-11T19:53:40.618Z,21.87
2018-01-11T19:56:08.923Z,20.25
2018-01-11T19:58:36.354Z,21.75
2018-01-11T20:01:04.589Z,22.37
2018-01-11T20:03:32.427Z,22.13
2018-01-11T20:05:59.845Z,22.35
2018-01-11T20:08:28.050Z,23.58
2018-01-11T20:10:55.537Z,22.67
2018-01-11T20:13:22.972Z,24.45
2018-01-11T20:15:50.401Z,24.27
2018-01-11T20:18:17.897Z,24.30
2018-01-11T20:20:45.337Z,25.00
2018-01-11T20:23:12.774Z,23.75
2018-01-11T20:25:40.280Z,25.08
2018-01-11T20:28:07.717Z,26.15
2018-01-11T20:30:35.189Z,27.08
2018-01-11T20:33:02.638Z,28.38
2018-01-11T20:35:30.094Z,27.30
2018-01-11T20:37:57.550Z,27.23
2018-01-11T20:40:25.006Z,28.42
2018-01-11T20:42:52.447Z,28.60
2018-01-11T20:45:20.035Z,29.27
2018-01-11T20:47:47.483Z,29.17
2018-01-11T20:50:14.943Z,28.80
2018-01-11T20:52:42.389Z,28.62
2018-01-11T20:55:09.927Z,29.80
2018-01-11T20:57:37.350Z,29.40
2018-01-11T21:00:05.558Z,29.02
2018-01-11T21:02:33.050Z,31.40
2018-01-11T21:05:00.496Z,29.48
2018-01-11T21:07:27.933Z,29.50
2018-01-11T21:09:55.378Z,28.27
2018-01-11T21:12:22.814Z,28.75
2018-01-11T21:14:51.022Z,29.20
2018-01-11T21:17:18.729Z,30.65
2018-01-11T21:19:46.386Z,29.20
2018-01-11T21:22:13.834Z,28.90
2018-01-11T21:24:41.284Z,30.40
2018-01-11T21:27:09.786Z,28.95
2018-01-11T21:29:37.342Z,28.95
2018-01-11T21:32:04.782Z,28.92
2018-01-11T21:34:32.217Z,28.25
2018-01-11T21:37:00.422Z,29.95
2018-01-11T21:39:27.857Z,28.95
2018-01-11T21:41:55.501Z,30.20
2018-01-11T21:44:22.926Z,30.48
2018-01-11T21:46:50.370Z,32.17
2018-01-11T21:49:18.626Z,30.90
2018-01-11T21:51:46.045Z,30.98
2018-01-11T21:54:13.898Z,30.00
2018-01-11T21:56:41.381Z,30.33
2018-01-11T21:59:08.928Z,30.85
2018-01-11T22:01:36.424Z,30.67
2018-01-11T22:04:03.958Z,31.70
2018-01-11T22:06:31.403Z,28.87
2018-01-11T22:08:58.846Z,29.87
2018-01-11T22:11:26.330Z,28.33
2018-01-11T22:13:53.762Z,28.25
2018-01-11T22:16:21.194Z,29.50
2018-01-11T22:18:48.648Z,28.00
2018-01-11T22:21:52.583Z,28.10
2018-01-11T22:24:20.024Z,27.62
2018-01-11T22:26:47.470Z,25.25
2018-01-11T22:29:15.666Z,25.77
2018-01-11T22:31:43.123Z,26.15
2018-01-11T22:34:10.585Z,25.83
2018-01-11T22:36:38.003Z,27.70
2018-01-11T22:39:06.234Z,25.30
2018-01-11T22:41:33.673Z,26.15
2018-01-11T22:44:01.127Z,25.92
2018-01-11T22:46:28.606Z,26.15
2018-01-11T22:48:56.082Z,25.70
2018-01-11T22:51:23.623Z,25.45
2018-01-11T22:53:51.082Z,25.20
2018-01-11T22:56:18.562Z,26.37
2018-01-11T22:58:46.069Z,25.25
2018-01-11T23:01:13.678Z,23.08
2018-01-11T23:03:41.113Z,23.10
2018-01-11T23:06:08.566Z,22.70
2018-01-11T23:08:36.044Z,22.02
2018-01-11T23:11:03.497Z,22.25
2018-01-11T23:13:30.954Z,22.73
2018-01-11T23:15:58.515Z,23.25
2018-01-11T23:18:26.056Z,21.85
2018-01-11T23:20:53.496Z,18.90
2018-01-11T23:23:21.079Z,20.20
2018-01-11T23:25:48.518Z,20.20
2018-01-11T23:28:15.972Z,19.48
2018-01-11T23:30:43.439Z,17.90
2018-01-11T23:33:10.866Z,17.20
2018-01-11T23:35:38.545Z,16.23
2018-01-11T23:38:05.978Z,16.08
2018-01-11T23:40:33.469Z,15.90
2018-01-11T23:43:00.909Z,16.37
2018-01-11T23:45:28.337Z,16.60
2018-01-11T23:47:55.781Z,15.95
2018-01-11T23:50:23.994Z,16.48
2018-01-11T23:52:51.475Z,16.23
2018-01-11T23:55:18.918Z,14.82
2018-01-11T23:57:46.367Z,15.13
